Ederlezi — FGF8882 — position and weather

sailwx.info

Track history (hours):
 
Tides and Currents Weather Stations Pressure Air Temp Water Temp Dewpoint Dewpoint Depression Visibility Wind Speed Wind Dir Waves Ship Positions

Ederlezi

Last reported at 2018-Jun-22 16:30 UTC. Time now 2018-Jun-22 16:40 UTC.
Position N 47°40' W 003°22'.

Length 11 m.

Type: Sailing vessel. MMSI: 227766190.

Date/timePositionNaut miles runAvg speedWind from/ knotsBaromVisibWave heightAir tempDewpointWater temp
2018-Jun-22 16:30N 47°40' W 003°22'4 7.4
2018-Jun-22 16:00N 47°37' W 003°20'4 7.5
2018-Jun-22 15:30N 47°34' W 003°17'4 8.2
2018-Jun-22 15:00N 47°30' W 003°13'4 8.6
2018-Jun-22 14:30N 47°28' W 003°08'4 7.3
2018-Jun-22 14:00N 47°27' W 003°03'3 6.6
2018-Jun-22 13:30N 47°30' W 003°02'3 6.8
2018-Jun-22 13:00N 47°34' W 003°01'2 3.2
2018-Jun-22 12:30N 47°33' W 003°02'2 4.7
2018-Jun-22 11:59N 47°31' W 003°05'4 8.0
2018-Jun-22 11:30N 47°28' W 003°02'2 4.9
2018-Jun-22 11:01N 47°29' W 002°59'3 6.4
2018-Jun-22 10:29N 47°29' W 002°54'2 4.9
2018-Jun-22 10:00N 47°32' W 002°54'1 2.4
2018-Jun-22 09:29N 47°31' W 002°55'2 4.3
2018-Jun-22 09:00N 47°33' W 002°54'0 0.1
2018-Jun-22 08:26N 47°33' W 002°54'0 0.0
2018-Jun-22 07:50N 47°33' W 002°54'0 0.0
2018-Jun-22 07:26N 47°33' W 002°54'0 0.0
2018-Jun-21 19:36N 47°33' W 002°54'0 0.0
2018-Jun-21 19:09N 47°33' W 002°54'0 0.0
2018-Jun-21 18:42N 47°33' W 002°54'0 0.0
2018-Jun-21 18:30N 47°33' W 002°54'0 0.0
2018-Jun-21 17:48N 47°33' W 002°54'0 0.0
2018-Jun-21 17:15N 47°33' W 002°54'0 0.0
2018-Jun-21 16:45N 47°33' W 002°54'0 0.0
2018-Jun-21 16:30N 47°33' W 002°54'0 0.2
2018-Jun-21 15:56N 47°33' W 002°54'1 2.4
2018-Jun-21 15:28N 47°31' W 002°54'3 5.4
2018-Jun-21 15:00N 47°29' W 002°54'  
2018-Jun-19 07:55N 47°05' W 002°12'3 4.3
2018-Jun-19 07:09N 47°06' W 002°07'0 2.1
2018-Jun-19 06:56N 47°06' W 002°07'24 0.6
2018-Jun-17 15:21N 47°23' W 002°32'2 2.8
2018-Jun-17 14:44N 47°25' W 002°33'1 3.3
2018-Jun-17 14:29N 47°25' W 002°32'2 4.9
2018-Jun-17 13:58N 47°27' W 002°34'4 3.4
2018-Jun-17 12:43N 47°23' W 002°37'2 8.8
2018-Jun-17 12:27N 47°23' W 002°41'4 9.1
2018-Jun-17 11:59N 47°25' W 002°47'4 8.3
2018-Jun-17 11:30N 47°26' W 002°52'2 4.0
2018-Jun-17 10:56N 47°27' W 002°49'1 2.9
2018-Jun-17 10:30N 47°28' W 002°49'3 6.6
2018-Jun-17 09:59N 47°29' W 002°54'3 6.7
2018-Jun-17 09:30N 47°31' W 002°58'3 6.3
2018-Jun-17 09:00N 47°30' W 003°02'3 6.6
2018-Jun-17 08:30N 47°33' W 003°03'2 3.7
2018-Jun-17 08:00N 47°33' W 002°60'2 3.1
2018-Jun-17 07:30N 47°34' W 003°01'1 1.9
2018-Jun-17 06:52N 47°35' W 003°01'0 0.0
2018-Jun-17 06:28N 47°35' W 003°01'0 0.0
2018-Jun-16 21:09N 47°35' W 003°01'0 0.0
2018-Jun-16 20:57N 47°35' W 003°01'0 0.0
2018-Jun-16 20:30N 47°35' W 003°01'0 0.0
2018-Jun-16 20:00N 47°35' W 003°01'0 0.0
2018-Jun-16 19:30N 47°35' W 003°01'0 0.0
2018-Jun-16 19:00N 47°35' W 003°01'0 0.0
2018-Jun-16 14:11N 47°35' W 003°01'0 0.0
2018-Jun-16 14:00N 47°35' W 003°01'3 5.2
2018-Jun-16 13:30N 47°33' W 003°01'4 7.3
2018-Jun-16 13:00N 47°29' W 003°02'4 7.2
2018-Jun-16 12:29N 47°26' W 003°05'3 6.7
2018-Jun-16 12:00N 47°28' W 003°09'4 7.3
2018-Jun-16 11:30N 47°31' W 003°12'4 7.8
2018-Jun-16 11:00N 47°34' W 003°15'4 7.3
2018-Jun-16 10:30N 47°37' W 003°18'4 7.4
2018-Jun-16 10:00N 47°40' W 003°21'3 6.2
2018-Jun-16 09:30N 47°43' W 003°22'1 1.0
2018-Jun-16 08:58N 47°43' W 003°21'0 0.0
2018-Jun-16 08:28N 47°43' W 003°21'0 0.0
2018-Jun-16 07:58N 47°43' W 003°21'0 0.0
2018-Jun-16 07:28N 47°43' W 003°21'  
Track history (hours):
 
Tides and Currents Weather Stations Pressure Air Temp Water Temp Dewpoint Dewpoint Depression Visibility Wind Speed Wind Dir Waves Ship Positions

Ederlezi

Last reported at 2018-Jun-22 16:30 UTC. Time now 2018-Jun-22 16:40 UTC.
Position N 47°40' W 003°22'.

Length 11 m.

Type: Sailing vessel. MMSI: 227766190.

Date/timePositionNaut miles runAvg speedWind from/ knotsBaromVisibWave heightAir tempDewpointWater temp
2018-Jun-22 16:30N 47°40' W 003°22'4 7.4
2018-Jun-22 16:00N 47°37' W 003°20'4 7.5
2018-Jun-22 15:30N 47°34' W 003°17'4 8.2
2018-Jun-22 15:00N 47°30' W 003°13'4 8.6
2018-Jun-22 14:30N 47°28' W 003°08'4 7.3
2018-Jun-22 14:00N 47°27' W 003°03'3 6.6
2018-Jun-22 13:30N 47°30' W 003°02'3 6.8
2018-Jun-22 13:00N 47°34' W 003°01'2 3.2
2018-Jun-22 12:30N 47°33' W 003°02'2 4.7
2018-Jun-22 11:59N 47°31' W 003°05'4 8.0
2018-Jun-22 11:30N 47°28' W 003°02'2 4.9
2018-Jun-22 11:01N 47°29' W 002°59'3 6.4
2018-Jun-22 10:29N 47°29' W 002°54'2 4.9
2018-Jun-22 10:00N 47°32' W 002°54'1 2.4
2018-Jun-22 09:29N 47°31' W 002°55'2 4.3
2018-Jun-22 09:00N 47°33' W 002°54'0 0.1
2018-Jun-22 08:26N 47°33' W 002°54'0 0.0
2018-Jun-22 07:50N 47°33' W 002°54'0 0.0
2018-Jun-22 07:26N 47°33' W 002°54'0 0.0
2018-Jun-21 19:36N 47°33' W 002°54'0 0.0
2018-Jun-21 19:09N 47°33' W 002°54'0 0.0
2018-Jun-21 18:42N 47°33' W 002°54'0 0.0
2018-Jun-21 18:30N 47°33' W 002°54'0 0.0
2018-Jun-21 17:48N 47°33' W 002°54'0 0.0
2018-Jun-21 17:15N 47°33' W 002°54'0 0.0
2018-Jun-21 16:45N 47°33' W 002°54'0 0.0
2018-Jun-21 16:30N 47°33' W 002°54'0 0.2
2018-Jun-21 15:56N 47°33' W 002°54'1 2.4
2018-Jun-21 15:28N 47°31' W 002°54'3 5.4
2018-Jun-21 15:00N 47°29' W 002°54'  
2018-Jun-19 07:55N 47°05' W 002°12'3 4.3
2018-Jun-19 07:09N 47°06' W 002°07'0 2.1
2018-Jun-19 06:56N 47°06' W 002°07'24 0.6
2018-Jun-17 15:21N 47°23' W 002°32'2 2.8
2018-Jun-17 14:44N 47°25' W 002°33'1 3.3
2018-Jun-17 14:29N 47°25' W 002°32'2 4.9
2018-Jun-17 13:58N 47°27' W 002°34'4 3.4
2018-Jun-17 12:43N 47°23' W 002°37'2 8.8
2018-Jun-17 12:27N 47°23' W 002°41'4 9.1
2018-Jun-17 11:59N 47°25' W 002°47'4 8.3
2018-Jun-17 11:30N 47°26' W 002°52'2 4.0
2018-Jun-17 10:56N 47°27' W 002°49'1 2.9
2018-Jun-17 10:30N 47°28' W 002°49'3 6.6
2018-Jun-17 09:59N 47°29' W 002°54'3 6.7
2018-Jun-17 09:30N 47°31' W 002°58'3 6.3
2018-Jun-17 09:00N 47°30' W 003°02'3 6.6
2018-Jun-17 08:30N 47°33' W 003°03'2 3.7
2018-Jun-17 08:00N 47°33' W 002°60'2 3.1
2018-Jun-17 07:30N 47°34' W 003°01'1 1.9
2018-Jun-17 06:52N 47°35' W 003°01'0 0.0
2018-Jun-17 06:28N 47°35' W 003°01'0 0.0
2018-Jun-16 21:09N 47°35' W 003°01'0 0.0
2018-Jun-16 20:57N 47°35' W 003°01'0 0.0
2018-Jun-16 20:30N 47°35' W 003°01'0 0.0
2018-Jun-16 20:00N 47°35' W 003°01'0 0.0
2018-Jun-16 19:30N 47°35' W 003°01'0 0.0
2018-Jun-16 19:00N 47°35' W 003°01'0 0.0
2018-Jun-16 14:11N 47°35' W 003°01'0 0.0
2018-Jun-16 14:00N 47°35' W 003°01'3 5.2
2018-Jun-16 13:30N 47°33' W 003°01'4 7.3
2018-Jun-16 13:00N 47°29' W 003°02'4 7.2
2018-Jun-16 12:29N 47°26' W 003°05'3 6.7
2018-Jun-16 12:00N 47°28' W 003°09'4 7.3
2018-Jun-16 11:30N 47°31' W 003°12'4 7.8
2018-Jun-16 11:00N 47°34' W 003°15'4 7.3
2018-Jun-16 10:30N 47°37' W 003°18'4 7.4
2018-Jun-16 10:00N 47°40' W 003°21'3 6.2
2018-Jun-16 09:30N 47°43' W 003°22'1 1.0
2018-Jun-16 08:58N 47°43' W 003°21'0 0.0
2018-Jun-16 08:28N 47°43' W 003°21'0 0.0
2018-Jun-16 07:58N 47°43' W 003°21'0 0.0
2018-Jun-16 07:28N 47°43' W 003°21'  

Dump ship's entire track history